sensor_id;sensor_type;location;lat;lon;timestamp;P1;durP1;ratioP1;P2;durP2;ratioP2
37305;SDS011;23193;42.656;21.170;2023-06-14T00:00:19;30.58;;;19.38;;
37305;SDS011;23193;42.656;21.170;2023-06-14T00:02:45;34.92;;;18.13;;
37305;SDS011;23193;42.656;21.170;2023-06-14T00:05:12;26.25;;;17.73;;
37305;SDS011;23193;42.656;21.170;2023-06-14T00:07:39;20.58;;;15.88;;
37305;SDS011;23193;42.656;21.170;2023-06-14T00:10:08;19.52;;;15.07;;
37305;SDS011;23193;42.656;21.170;2023-06-14T00:12:35;19.52;;;14.70;;
37305;SDS011;23193;42.656;21.170;2023-06-14T00:15:01;20.95;;;14.73;;
37305;SDS011;23193;42.656;21.170;2023-06-14T00:17:28;21.75;;;14.60;;
37305;SDS011;23193;42.656;21.170;2023-06-14T00:19:57;21.40;;;13.90;;
37305;SDS011;23193;42.656;21.170;2023-06-14T00:22:24;16.85;;;12.80;;
37305;SDS011;23193;42.656;21.170;2023-06-14T00:24:50;19.52;;;12.88;;
37305;SDS011;23193;42.656;21.170;2023-06-14T00:27:17;19.60;;;13.35;;
37305;SDS011;23193;42.656;21.170;2023-06-14T00:29:43;17.15;;;12.57;;
37305;SDS011;23193;42.656;21.170;2023-06-14T00:32:09;19.85;;;12.77;;
37305;SDS011;23193;42.656;21.170;2023-06-14T00:34:35;25.58;;;17.77;;
37305;SDS011;23193;42.656;21.170;2023-06-14T00:37:01;25.50;;;18.08;;
37305;SDS011;23193;42.656;21.170;2023-06-14T00:39:27;28.02;;;19.80;;
37305;SDS011;23193;42.656;21.170;2023-06-14T00:41:54;30.63;;;19.73;;
37305;SDS011;23193;42.656;21.170;2023-06-14T00:44:20;41.03;;;19.80;;
37305;SDS011;23193;42.656;21.170;2023-06-14T00:46:46;30.60;;;20.75;;
37305;SDS011;23193;42.656;21.170;2023-06-14T00:49:16;26.52;;;20.92;;
37305;SDS011;23193;42.656;21.170;2023-06-14T00:51:43;30.40;;;20.80;;
37305;SDS011;23193;42.656;21.170;2023-06-14T00:54:09;28.23;;;20.67;;
37305;SDS011;23193;42.656;21.170;2023-06-14T00:56:36;35.33;;;22.98;;
37305;SDS011;23193;42.656;21.170;2023-06-14T00:59:02;36.88;;;21.85;;
37305;SDS011;23193;42.656;21.170;2023-06-14T01:01:29;36.97;;;22.60;;
37305;SDS011;23193;42.656;21.170;2023-06-14T01:03:59;31.50;;;22.48;;
37305;SDS011;23193;42.656;21.170;2023-06-14T01:11:24;38.58;;;23.42;;
37305;SDS011;23193;42.656;21.170;2023-06-14T01:13:51;34.92;;;22.35;;
37305;SDS011;23193;42.656;21.170;2023-06-14T01:16:17;34.05;;;21.92;;
37305;SDS011;23193;42.656;21.170;2023-06-14T01:18:44;30.83;;;21.80;;
37305;SDS011;23193;42.656;21.170;2023-06-14T01:21:19;37.15;;;21.45;;
37305;SDS011;23193;42.656;21.170;2023-06-14T01:23:46;31.20;;;19.23;;
37305;SDS011;23193;42.656;21.170;2023-06-14T01:28:43;22.90;;;15.38;;
37305;SDS011;23193;42.656;21.170;2023-06-14T01:31:14;20.83;;;15.98;;
37305;SDS011;23193;42.656;21.170;2023-06-14T01:33:41;24.92;;;15.57;;
37305;SDS011;23193;42.656;21.170;2023-06-14T01:36:07;25.27;;;14.85;;
37305;SDS011;23193;42.656;21.170;2023-06-14T01:38:34;16.70;;;12.88;;
37305;SDS011;23193;42.656;21.170;2023-06-14T01:41:00;16.80;;;12.13;;
37305;SDS011;23193;42.656;21.170;2023-06-14T01:43:27;24.88;;;12.02;;
37305;SDS011;23193;42.656;21.170;2023-06-14T01:45:55;13.73;;;10.23;;
37305;SDS011;23193;42.656;21.170;2023-06-14T01:48:23;13.18;;;10.35;;
37305;SDS011;23193;42.656;21.170;2023-06-14T01:50:49;16.60;;;10.40;;
37305;SDS011;23193;42.656;21.170;2023-06-14T01:53:15;14.60;;;10.15;;
37305;SDS011;23193;42.656;21.170;2023-06-14T01:55:42;12.68;;;10.32;;
37305;SDS011;23193;42.656;21.170;2023-06-14T01:58:09;18.52;;;10.60;;
37305;SDS011;23193;42.656;21.170;2023-06-14T02:00:35;13.60;;;9.90;;
37305;SDS011;23193;42.656;21.170;2023-06-14T02:03:01;13.88;;;9.98;;
37305;SDS011;23193;42.656;21.170;2023-06-14T02:05:29;12.10;;;9.23;;
37305;SDS011;23193;42.656;21.170;2023-06-14T02:07:55;18.23;;;10.02;;
37305;SDS011;23193;42.656;21.170;2023-06-14T02:10:22;16.80;;;10.65;;
37305;SDS011;23193;42.656;21.170;2023-06-14T02:12:48;17.88;;;11.15;;
37305;SDS011;23193;42.656;21.170;2023-06-14T02:15:15;16.45;;;11.82;;
37305;SDS011;23193;42.656;21.170;2023-06-14T02:17:47;16.35;;;10.98;;
37305;SDS011;23193;42.656;21.170;2023-06-14T02:20:14;16.10;;;11.75;;
37305;SDS011;23193;42.656;21.170;2023-06-14T02:22:40;21.50;;;11.55;;
37305;SDS011;23193;42.656;21.170;2023-06-14T02:25:07;21.88;;;14.98;;
37305;SDS011;23193;42.656;21.170;2023-06-14T02:27:33;22.00;;;14.02;;
37305;SDS011;23193;42.656;21.170;2023-06-14T02:30:00;19.50;;;13.07;;
37305;SDS011;23193;42.656;21.170;2023-06-14T02:32:26;22.20;;;15.50;;
37305;SDS011;23193;42.656;21.170;2023-06-14T02:34:52;23.67;;;16.13;;
37305;SDS011;23193;42.656;21.170;2023-06-14T02:37:19;23.98;;;15.38;;
37305;SDS011;23193;42.656;21.170;2023-06-14T02:39:45;25.83;;;16.85;;
37305;SDS011;23193;42.656;21.170;2023-06-14T02:42:11;24.00;;;17.08;;
37305;SDS011;23193;42.656;21.170;2023-06-14T02:44:37;27.67;;;16.17;;
37305;SDS011;23193;42.656;21.170;2023-06-14T02:47:03;22.52;;;15.98;;
37305;SDS011;23193;42.656;21.170;2023-06-14T02:49:30;24.40;;;15.57;;
37305;SDS011;23193;42.656;21.170;2023-06-14T02:51:56;20.17;;;15.10;;
37305;SDS011;23193;42.656;21.170;2023-06-14T02:54:22;20.92;;;15.68;;
37305;SDS011;23193;42.656;21.170;2023-06-14T02:56:48;21.80;;;14.85;;
37305;SDS011;23193;42.656;21.170;2023-06-14T02:59:15;21.48;;;14.90;;
37305;SDS011;23193;42.656;21.170;2023-06-14T03:01:42;20.10;;;14.70;;
37305;SDS011;23193;42.656;21.170;2023-06-14T03:04:08;18.75;;;14.77;;
37305;SDS011;23193;42.656;21.170;2023-06-14T03:06:34;22.73;;;15.38;;
37305;SDS011;23193;42.656;21.170;2023-06-14T03:09:01;19.15;;;13.35;;
37305;SDS011;23193;42.656;21.170;2023-06-14T03:11:30;18.45;;;13.98;;
37305;SDS011;23193;42.656;21.170;2023-06-14T03:13:56;22.02;;;14.25;;
37305;SDS011;23193;42.656;21.170;2023-06-14T03:16:22;19.88;;;14.10;;
37305;SDS011;23193;42.656;21.170;2023-06-14T03:18:49;19.17;;;13.73;;
37305;SDS011;23193;42.656;21.170;2023-06-14T03:21:16;19.10;;;14.52;;
37305;SDS011;23193;42.656;21.170;2023-06-14T03:23:42;20.92;;;16.08;;
37305;SDS011;23193;42.656;21.170;2023-06-14T03:26:09;22.77;;;15.95;;
37305;SDS011;23193;42.656;21.170;2023-06-14T03:28:46;28.73;;;16.98;;
37305;SDS011;23193;42.656;21.170;2023-06-14T03:31:13;24.13;;;16.20;;
37305;SDS011;23193;42.656;21.170;2023-06-14T03:33:40;25.02;;;17.95;;
37305;SDS011;23193;42.656;21.170;2023-06-14T03:36:06;27.08;;;15.68;;
37305;SDS011;23193;42.656;21.170;2023-06-14T03:38:32;21.25;;;13.93;;
37305;SDS011;23193;42.656;21.170;2023-06-14T03:40:59;18.33;;;13.90;;
37305;SDS011;23193;42.656;21.170;2023-06-14T03:43:25;20.25;;;12.80;;
37305;SDS011;23193;42.656;21.170;2023-06-14T03:45:51;14.65;;;10.63;;
37305;SDS011;23193;42.656;21.170;2023-06-14T03:48:17;17.92;;;9.57;;
37305;SDS011;23193;42.656;21.170;2023-06-14T03:50:43;17.02;;;9.93;;
37305;SDS011;23193;42.656;21.170;2023-06-14T03:53:10;14.35;;;8.32;;
37305;SDS011;23193;42.656;21.170;2023-06-14T03:55:36;15.52;;;9.15;;
37305;SDS011;23193;42.656;21.170;2023-06-14T03:58:03;13.27;;;9.60;;
37305;SDS011;23193;42.656;21.170;2023-06-14T04:00:29;15.02;;;10.00;;
37305;SDS011;23193;42.656;21.170;2023-06-14T04:02:55;13.85;;;9.25;;
37305;SDS011;23193;42.656;21.170;2023-06-14T04:05:21;20.30;;;9.35;;
37305;SDS011;23193;42.656;21.170;2023-06-14T04:07:51;18.33;;;8.45;;
37305;SDS011;23193;42.656;21.170;2023-06-14T04:10:20;17.20;;;8.68;;
37305;SDS011;23193;42.656;21.170;2023-06-14T04:12:46;12.45;;;9.57;;
37305;SDS011;23193;42.656;21.170;2023-06-14T04:15:13;15.77;;;9.93;;
37305;SDS011;23193;42.656;21.170;2023-06-14T04:17:39;11.10;;;7.80;;
37305;SDS011;23193;42.656;21.170;2023-06-14T04:20:05;15.80;;;9.07;;
37305;SDS011;23193;42.656;21.170;2023-06-14T04:22:34;11.90;;;8.35;;
37305;SDS011;23193;42.656;21.170;2023-06-14T04:25:01;12.35;;;8.40;;
37305;SDS011;23193;42.656;21.170;2023-06-14T04:27:28;14.88;;;9.77;;
37305;SDS011;23193;42.656;21.170;2023-06-14T04:29:56;16.00;;;8.63;;
37305;SDS011;23193;42.656;21.170;2023-06-14T04:32:23;15.68;;;9.43;;
37305;SDS011;23193;42.656;21.170;2023-06-14T04:34:54;20.73;;;10.30;;
37305;SDS011;23193;42.656;21.170;2023-06-14T04:37:21;13.93;;;10.20;;
37305;SDS011;23193;42.656;21.170;2023-06-14T04:39:48;16.17;;;10.25;;
37305;SDS011;23193;42.656;21.170;2023-06-14T04:42:15;18.15;;;11.07;;
37305;SDS011;23193;42.656;21.170;2023-06-14T04:44:44;17.52;;;10.60;;
37305;SDS011;23193;42.656;21.170;2023-06-14T04:47:12;12.52;;;10.32;;
37305;SDS011;23193;42.656;21.170;2023-06-14T04:49:41;18.10;;;12.30;;
37305;SDS011;23193;42.656;21.170;2023-06-14T04:52:07;24.10;;;12.45;;
37305;SDS011;23193;42.656;21.170;2023-06-14T04:54:35;19.70;;;11.85;;
37305;SDS011;23193;42.656;21.170;2023-06-14T04:57:06;14.60;;;11.48;;
37305;SDS011;23193;42.656;21.170;2023-06-14T04:59:32;20.25;;;11.35;;
37305;SDS011;23193;42.656;21.170;2023-06-14T05:02:00;21.70;;;11.35;;
37305;SDS011;23193;42.656;21.170;2023-06-14T05:04:27;19.30;;;12.07;;
37305;SDS011;23193;42.656;21.170;2023-06-14T05:06:53;21.33;;;12.05;;
37305;SDS011;23193;42.656;21.170;2023-06-14T05:09:20;19.98;;;11.18;;
37305;SDS011;23193;42.656;21.170;2023-06-14T05:11:46;18.02;;;12.45;;
37305;SDS011;23193;42.656;21.170;2023-06-14T05:14:13;24.00;;;11.82;;
37305;SDS011;23193;42.656;21.170;2023-06-14T05:16:40;22.55;;;11.85;;
37305;SDS011;23193;42.656;21.170;2023-06-14T05:19:06;24.20;;;12.32;;
37305;SDS011;23193;42.656;21.170;2023-06-14T05:21:33;24.23;;;11.98;;
37305;SDS011;23193;42.656;21.170;2023-06-14T05:23:59;22.33;;;12.30;;
37305;SDS011;23193;42.656;21.170;2023-06-14T05:26:25;21.52;;;11.98;;
37305;SDS011;23193;42.656;21.170;2023-06-14T05:28:58;26.13;;;13.05;;
37305;SDS011;23193;42.656;21.170;2023-06-14T05:33:53;16.30;;;11.95;;
37305;SDS011;23193;42.656;21.170;2023-06-14T05:36:19;19.73;;;13.15;;
37305;SDS011;23193;42.656;21.170;2023-06-14T05:38:49;15.02;;;12.30;;
37305;SDS011;23193;42.656;21.170;2023-06-14T05:41:27;23.80;;;14.18;;
37305;SDS011;23193;42.656;21.170;2023-06-14T05:43:54;19.52;;;13.90;;
37305;SDS011;23193;42.656;21.170;2023-06-14T05:46:21;24.05;;;16.08;;
37305;SDS011;23193;42.656;21.170;2023-06-14T05:48:49;20.73;;;14.82;;
37305;SDS011;23193;42.656;21.170;2023-06-14T05:51:16;21.17;;;14.57;;
37305;SDS011;23193;42.656;21.170;2023-06-14T05:53:47;24.13;;;15.40;;
37305;SDS011;23193;42.656;21.170;2023-06-14T05:56:14;23.65;;;15.20;;
37305;SDS011;23193;42.656;21.170;2023-06-14T05:58:40;23.90;;;15.27;;
37305;SDS011;23193;42.656;21.170;2023-06-14T06:01:06;28.63;;;15.13;;
37305;SDS011;23193;42.656;21.170;2023-06-14T06:03:32;28.50;;;16.40;;
37305;SDS011;23193;42.656;21.170;2023-06-14T06:05:59;27.67;;;14.88;;
37305;SDS011;23193;42.656;21.170;2023-06-14T06:08:26;25.30;;;15.10;;
37305;SDS011;23193;42.656;21.170;2023-06-14T06:10:52;29.40;;;15.02;;
37305;SDS011;23193;42.656;21.170;2023-06-14T06:13:18;25.42;;;15.48;;
37305;SDS011;23193;42.656;21.170;2023-06-14T06:15:45;27.08;;;15.90;;
37305;SDS011;23193;42.656;21.170;2023-06-14T06:18:11;30.42;;;15.77;;
37305;SDS011;23193;42.656;21.170;2023-06-14T06:20:37;28.52;;;16.52;;
37305;SDS011;23193;42.656;21.170;2023-06-14T06:23:03;29.27;;;15.55;;
37305;SDS011;23193;42.656;21.170;2023-06-14T06:25:29;36.65;;;15.38;;
37305;SDS011;23193;42.656;21.170;2023-06-14T06:27:57;33.45;;;15.43;;
37305;SDS011;23193;42.656;21.170;2023-06-14T06:30:23;33.03;;;15.18;;
37305;SDS011;23193;42.656;21.170;2023-06-14T06:32:49;31.35;;;16.08;;
37305;SDS011;23193;42.656;21.170;2023-06-14T06:35:16;26.23;;;14.75;;
37305;SDS011;23193;42.656;21.170;2023-06-14T06:37:42;23.85;;;13.82;;
37305;SDS011;23193;42.656;21.170;2023-06-14T06:40:09;23.10;;;14.10;;
37305;SDS011;23193;42.656;21.170;2023-06-14T06:42:35;21.23;;;14.40;;
37305;SDS011;23193;42.656;21.170;2023-06-14T06:45:02;27.48;;;15.30;;
37305;SDS011;23193;42.656;21.170;2023-06-14T06:47:28;21.90;;;14.88;;
37305;SDS011;23193;42.656;21.170;2023-06-14T06:49:54;21.67;;;14.95;;
37305;SDS011;23193;42.656;21.170;2023-06-14T06:52:20;27.70;;;15.07;;
37305;SDS011;23193;42.656;21.170;2023-06-14T06:54:46;26.10;;;16.77;;
37305;SDS011;23193;42.656;21.170;2023-06-14T06:57:14;30.30;;;16.80;;
37305;SDS011;23193;42.656;21.170;2023-06-14T06:59:40;28.60;;;14.43;;
37305;SDS011;23193;42.656;21.170;2023-06-14T07:02:06;25.35;;;17.52;;
37305;SDS011;23193;42.656;21.170;2023-06-14T07:04:32;24.98;;;16.52;;
37305;SDS011;23193;42.656;21.170;2023-06-14T07:06:58;32.10;;;17.17;;
37305;SDS011;23193;42.656;21.170;2023-06-14T07:09:24;30.08;;;16.45;;
37305;SDS011;23193;42.656;21.170;2023-06-14T07:11:50;24.60;;;16.13;;
37305;SDS011;23193;42.656;21.170;2023-06-14T07:14:17;35.55;;;17.25;;
37305;SDS011;23193;42.656;21.170;2023-06-14T07:16:43;24.10;;;16.88;;
37305;SDS011;23193;42.656;21.170;2023-06-14T07:19:09;26.63;;;17.63;;
37305;SDS011;23193;42.656;21.170;2023-06-14T07:21:35;29.55;;;19.42;;
37305;SDS011;23193;42.656;21.170;2023-06-14T07:24:04;37.55;;;19.13;;
37305;SDS011;23193;42.656;21.170;2023-06-14T07:26:31;31.13;;;18.02;;
37305;SDS011;23193;42.656;21.170;2023-06-14T07:28:57;39.25;;;20.20;;
37305;SDS011;23193;42.656;21.170;2023-06-14T07:31:23;31.00;;;20.33;;
37305;SDS011;23193;42.656;21.170;2023-06-14T07:33:50;26.10;;;17.75;;
37305;SDS011;23193;42.656;21.170;2023-06-14T07:36:16;25.95;;;16.85;;
37305;SDS011;23193;42.656;21.170;2023-06-14T07:38:42;26.05;;;16.55;;
37305;SDS011;23193;42.656;21.170;2023-06-14T07:41:09;27.83;;;16.80;;
37305;SDS011;23193;42.656;21.170;2023-06-14T07:43:35;30.60;;;17.45;;
37305;SDS011;23193;42.656;21.170;2023-06-14T07:46:01;38.22;;;18.50;;
37305;SDS011;23193;42.656;21.170;2023-06-14T07:48:28;27.73;;;16.80;;
37305;SDS011;23193;42.656;21.170;2023-06-14T07:50:54;22.23;;;14.90;;
37305;SDS011;23193;42.656;21.170;2023-06-14T07:53:20;23.08;;;13.93;;
37305;SDS011;23193;42.656;21.170;2023-06-14T07:55:46;21.33;;;14.30;;
37305;SDS011;23193;42.656;21.170;2023-06-14T07:58:13;31.13;;;14.57;;
37305;SDS011;23193;42.656;21.170;2023-06-14T08:00:40;28.10;;;17.38;;
37305;SDS011;23193;42.656;21.170;2023-06-14T08:03:06;33.75;;;15.30;;
37305;SDS011;23193;42.656;21.170;2023-06-14T08:05:32;20.35;;;13.95;;
37305;SDS011;23193;42.656;21.170;2023-06-14T08:07:59;20.30;;;12.68;;
37305;SDS011;23193;42.656;21.170;2023-06-14T08:10:26;18.42;;;12.18;;
37305;SDS011;23193;42.656;21.170;2023-06-14T08:12:52;16.50;;;11.95;;
37305;SDS011;23193;42.656;21.170;2023-06-14T08:15:18;16.40;;;11.60;;
37305;SDS011;23193;42.656;21.170;2023-06-14T08:17:44;21.10;;;14.30;;
37305;SDS011;23193;42.656;21.170;2023-06-14T08:20:11;22.80;;;15.90;;
37305;SDS011;23193;42.656;21.170;2023-06-14T08:22:37;19.13;;;14.15;;
37305;SDS011;23193;42.656;21.170;2023-06-14T08:25:04;17.90;;;12.80;;
37305;SDS011;23193;42.656;21.170;2023-06-14T08:27:31;16.50;;;12.80;;
37305;SDS011;23193;42.656;21.170;2023-06-14T08:29:58;20.98;;;12.40;;
37305;SDS011;23193;42.656;21.170;2023-06-14T08:32:24;18.33;;;11.95;;
37305;SDS011;23193;42.656;21.170;2023-06-14T08:34:50;18.65;;;13.27;;
37305;SDS011;23193;42.656;21.170;2023-06-14T08:37:16;19.55;;;11.45;;
37305;SDS011;23193;42.656;21.170;2023-06-14T08:39:42;21.83;;;10.35;;
37305;SDS011;23193;42.656;21.170;2023-06-14T08:42:09;13.80;;;10.25;;
37305;SDS011;23193;42.656;21.170;2023-06-14T08:44:36;18.20;;;10.35;;
37305;SDS011;23193;42.656;21.170;2023-06-14T08:47:02;17.88;;;11.15;;
37305;SDS011;23193;42.656;21.170;2023-06-14T08:49:28;15.20;;;10.30;;
37305;SDS011;23193;42.656;21.170;2023-06-14T08:51:59;14.00;;;10.20;;
37305;SDS011;23193;42.656;21.170;2023-06-14T08:54:26;12.57;;;10.30;;
37305;SDS011;23193;42.656;21.170;2023-06-14T08:56:55;19.42;;;10.32;;
37305;SDS011;23193;42.656;21.170;2023-06-14T08:59:31;13.45;;;10.20;;
37305;SDS011;23193;42.656;21.170;2023-06-14T09:02:04;20.58;;;10.70;;
37305;SDS011;23193;42.656;21.170;2023-06-14T09:04:30;14.63;;;9.35;;
37305;SDS011;23193;42.656;21.170;2023-06-14T09:06:57;20.95;;;9.50;;
37305;SDS011;23193;42.656;21.170;2023-06-14T09:09:24;16.27;;;9.70;;
37305;SDS011;23193;42.656;21.170;2023-06-14T09:11:51;15.60;;;10.32;;
37305;SDS011;23193;42.656;21.170;2023-06-14T09:14:21;14.60;;;8.75;;
37305;SDS011;23193;42.656;21.170;2023-06-14T09:16:47;9.67;;;7.83;;
37305;SDS011;23193;42.656;21.170;2023-06-14T09:19:25;14.70;;;7.75;;
37305;SDS011;23193;42.656;21.170;2023-06-14T09:21:52;18.60;;;9.18;;
37305;SDS011;23193;42.656;21.170;2023-06-14T09:24:18;20.85;;;10.88;;
37305;SDS011;23193;42.656;21.170;2023-06-14T09:26:48;18.05;;;11.15;;
37305;SDS011;23193;42.656;21.170;2023-06-14T09:29:16;12.82;;;9.65;;
37305;SDS011;23193;42.656;21.170;2023-06-14T09:31:42;13.30;;;9.80;;
37305;SDS011;23193;42.656;21.170;2023-06-14T09:34:08;13.35;;;9.75;;
37305;SDS011;23193;42.656;21.170;2023-06-14T09:36:35;24.95;;;11.73;;
37305;SDS011;23193;42.656;21.170;2023-06-14T09:39:02;14.43;;;11.05;;
37305;SDS011;23193;42.656;21.170;2023-06-14T09:41:33;16.35;;;11.80;;
37305;SDS011;23193;42.656;21.170;2023-06-14T09:44:00;15.38;;;11.15;;
37305;SDS011;23193;42.656;21.170;2023-06-14T09:46:27;15.80;;;10.20;;
37305;SDS011;23193;42.656;21.170;2023-06-14T09:48:54;18.98;;;10.88;;
37305;SDS011;23193;42.656;21.170;2023-06-14T09:51:21;14.80;;;10.25;;
37305;SDS011;23193;42.656;21.170;2023-06-14T09:53:49;17.73;;;11.02;;
37305;SDS011;23193;42.656;21.170;2023-06-14T09:56:17;17.38;;;11.00;;
37305;SDS011;23193;42.656;21.170;2023-06-14T09:58:46;15.32;;;10.02;;
37305;SDS011;23193;42.656;21.170;2023-06-14T10:01:12;21.95;;;11.15;;
37305;SDS011;23193;42.656;21.170;2023-06-14T10:03:39;22.45;;;10.85;;
37305;SDS011;23193;42.656;21.170;2023-06-14T10:06:05;15.38;;;9.85;;
37305;SDS011;23193;42.656;21.170;2023-06-14T10:08:33;17.25;;;9.57;;
37305;SDS011;23193;42.656;21.170;2023-06-14T10:11:02;13.70;;;10.00;;
37305;SDS011;23193;42.656;21.170;2023-06-14T10:13:28;14.82;;;10.32;;
37305;SDS011;23193;42.656;21.170;2023-06-14T10:23:21;16.80;;;10.10;;
37305;SDS011;23193;42.656;21.170;2023-06-14T10:25:54;14.90;;;9.63;;
37305;SDS011;23193;42.656;21.170;2023-06-14T10:28:21;17.83;;;12.02;;
37305;SDS011;23193;42.656;21.170;2023-06-14T10:33:33;14.68;;;10.93;;
37305;SDS011;23193;42.656;21.170;2023-06-14T10:36:07;15.68;;;10.02;;
37305;SDS011;23193;42.656;21.170;2023-06-14T10:38:33;14.73;;;10.25;;
37305;SDS011;23193;42.656;21.170;2023-06-14T10:41:01;13.60;;;10.00;;
37305;SDS011;23193;42.656;21.170;2023-06-14T10:43:27;18.33;;;9.93;;
37305;SDS011;23193;42.656;21.170;2023-06-14T10:48:42;13.07;;;8.95;;
37305;SDS011;23193;42.656;21.170;2023-06-14T10:51:21;13.68;;;9.90;;
37305;SDS011;23193;42.656;21.170;2023-06-14T10:53:48;24.50;;;10.00;;
37305;SDS011;23193;42.656;21.170;2023-06-14T10:56:26;10.45;;;7.88;;
37305;SDS011;23193;42.656;21.170;2023-06-14T10:58:53;16.92;;;8.02;;
37305;SDS011;23193;42.656;21.170;2023-06-14T11:01:23;10.60;;;7.57;;
37305;SDS011;23193;42.656;21.170;2023-06-14T11:03:51;10.43;;;6.33;;
37305;SDS011;23193;42.656;21.170;2023-06-14T11:06:19;10.77;;;7.05;;
37305;SDS011;23193;42.656;21.170;2023-06-14T11:11:31;15.00;;;7.85;;
37305;SDS011;23193;42.656;21.170;2023-06-14T11:14:00;13.60;;;6.93;;
37305;SDS011;23193;42.656;21.170;2023-06-14T11:16:27;9.80;;;6.25;;
37305;SDS011;23193;42.656;21.170;2023-06-14T11:18:54;8.77;;;6.35;;
37305;SDS011;23193;42.656;21.170;2023-06-14T11:21:20;7.22;;;5.97;;
37305;SDS011;23193;42.656;21.170;2023-06-14T11:23:52;8.10;;;6.60;;
37305;SDS011;23193;42.656;21.170;2023-06-14T11:28:54;12.85;;;6.97;;
37305;SDS011;23193;42.656;21.170;2023-06-14T11:31:21;17.63;;;10.00;;
37305;SDS011;23193;42.656;21.170;2023-06-14T11:33:50;18.35;;;7.60;;
37305;SDS011;23193;42.656;21.170;2023-06-14T11:36:19;12.38;;;6.28;;
37305;SDS011;23193;42.656;21.170;2023-06-14T11:38:45;7.07;;;5.55;;
37305;SDS011;23193;42.656;21.170;2023-06-14T11:41:11;10.13;;;6.00;;
37305;SDS011;23193;42.656;21.170;2023-06-14T11:43:37;11.07;;;5.85;;
37305;SDS011;23193;42.656;21.170;2023-06-14T11:46:03;8.88;;;5.90;;
37305;SDS011;23193;42.656;21.170;2023-06-14T11:48:40;7.75;;;6.03;;
37305;SDS011;23193;42.656;21.170;2023-06-14T11:51:06;6.38;;;4.97;;
37305;SDS011;23193;42.656;21.170;2023-06-14T11:53:32;11.82;;;5.15;;
37305;SDS011;23193;42.656;21.170;2023-06-14T11:55:59;9.90;;;5.35;;
37305;SDS011;23193;42.656;21.170;2023-06-14T11:58:25;11.07;;;6.20;;
37305;SDS011;23193;42.656;21.170;2023-06-14T12:00:53;8.77;;;6.13;;
37305;SDS011;23193;42.656;21.170;2023-06-14T12:03:23;8.00;;;5.85;;
37305;SDS011;23193;42.656;21.170;2023-06-14T12:05:50;10.25;;;6.72;;
37305;SDS011;23193;42.656;21.170;2023-06-14T12:08:16;11.38;;;6.38;;
37305;SDS011;23193;42.656;21.170;2023-06-14T12:10:43;13.38;;;7.28;;
37305;SDS011;23193;42.656;21.170;2023-06-14T12:13:09;17.88;;;7.88;;
37305;SDS011;23193;42.656;21.170;2023-06-14T12:15:36;16.30;;;8.82;;
37305;SDS011;23193;42.656;21.170;2023-06-14T12:18:05;11.32;;;7.72;;
37305;SDS011;23193;42.656;21.170;2023-06-14T12:20:33;9.10;;;6.38;;
37305;SDS011;23193;42.656;21.170;2023-06-14T12:23:03;7.22;;;5.53;;
37305;SDS011;23193;42.656;21.170;2023-06-14T12:25:33;7.25;;;5.78;;
37305;SDS011;23193;42.656;21.170;2023-06-14T12:28:06;14.63;;;6.90;;
37305;SDS011;23193;42.656;21.170;2023-06-14T12:30:33;8.30;;;6.50;;
37305;SDS011;23193;42.656;21.170;2023-06-14T12:33:00;8.30;;;6.03;;
37305;SDS011;23193;42.656;21.170;2023-06-14T12:35:27;14.20;;;5.35;;
37305;SDS011;23193;42.656;21.170;2023-06-14T12:37:53;14.80;;;6.63;;
37305;SDS011;23193;42.656;21.170;2023-06-14T12:40:19;10.38;;;5.80;;
37305;SDS011;23193;42.656;21.170;2023-06-14T12:42:46;8.25;;;4.88;;
37305;SDS011;23193;42.656;21.170;2023-06-14T12:45:12;8.02;;;5.10;;
37305;SDS011;23193;42.656;21.170;2023-06-14T12:47:38;9.68;;;5.80;;
37305;SDS011;23193;42.656;21.170;2023-06-14T12:50:05;8.05;;;6.07;;
37305;SDS011;23193;42.656;21.170;2023-06-14T12:52:32;8.95;;;6.07;;
37305;SDS011;23193;42.656;21.170;2023-06-14T12:55:01;7.57;;;6.22;;
37305;SDS011;23193;42.656;21.170;2023-06-14T12:57:28;10.90;;;5.47;;
37305;SDS011;23193;42.656;21.170;2023-06-14T12:59:54;7.57;;;5.68;;
37305;SDS011;23193;42.656;21.170;2023-06-14T13:02:20;10.70;;;5.35;;
37305;SDS011;23193;42.656;21.170;2023-06-14T13:04:50;15.65;;;10.82;;
37305;SDS011;23193;42.656;21.170;2023-06-14T13:07:16;17.20;;;11.52;;
37305;SDS011;23193;42.656;21.170;2023-06-14T13:09:43;12.23;;;7.53;;
37305;SDS011;23193;42.656;21.170;2023-06-14T13:12:10;11.35;;;6.38;;
37305;SDS011;23193;42.656;21.170;2023-06-14T13:14:37;7.18;;;6.03;;
37305;SDS011;23193;42.656;21.170;2023-06-14T13:17:03;9.27;;;5.70;;
37305;SDS011;23193;42.656;21.170;2023-06-14T13:19:30;9.60;;;5.85;;
37305;SDS011;23193;42.656;21.170;2023-06-14T13:21:56;7.97;;;5.80;;
37305;SDS011;23193;42.656;21.170;2023-06-14T13:24:22;9.18;;;6.90;;
37305;SDS011;23193;42.656;21.170;2023-06-14T13:26:49;7.10;;;5.20;;
37305;SDS011;23193;42.656;21.170;2023-06-14T13:29:15;15.63;;;6.13;;
37305;SDS011;23193;42.656;21.170;2023-06-14T13:31:41;16.15;;;6.20;;
37305;SDS011;23193;42.656;21.170;2023-06-14T13:34:07;9.18;;;5.55;;
37305;SDS011;23193;42.656;21.170;2023-06-14T13:36:33;10.82;;;6.55;;
37305;SDS011;23193;42.656;21.170;2023-06-14T13:38:59;14.88;;;9.68;;
37305;SDS011;23193;42.656;21.170;2023-06-14T13:41:27;8.63;;;4.85;;
37305;SDS011;23193;42.656;21.170;2023-06-14T13:43:59;8.30;;;5.35;;
37305;SDS011;23193;42.656;21.170;2023-06-14T13:46:25;6.78;;;4.82;;
37305;SDS011;23193;42.656;21.170;2023-06-14T13:48:51;5.18;;;4.65;;
37305;SDS011;23193;42.656;21.170;2023-06-14T13:51:17;7.75;;;4.22;;
37305;SDS011;23193;42.656;21.170;2023-06-14T13:53:50;9.00;;;4.43;;
37305;SDS011;23193;42.656;21.170;2023-06-14T13:56:16;6.78;;;4.50;;
37305;SDS011;23193;42.656;21.170;2023-06-14T13:58:43;8.10;;;4.10;;
37305;SDS011;23193;42.656;21.170;2023-06-14T14:01:09;5.93;;;4.30;;
37305;SDS011;23193;42.656;21.170;2023-06-14T14:03:36;6.75;;;4.82;;
37305;SDS011;23193;42.656;21.170;2023-06-14T14:06:03;9.63;;;5.90;;
37305;SDS011;23193;42.656;21.170;2023-06-14T14:08:31;8.65;;;4.25;;
37305;SDS011;23193;42.656;21.170;2023-06-14T14:10:57;10.60;;;4.60;;
37305;SDS011;23193;42.656;21.170;2023-06-14T14:13:23;8.95;;;4.55;;
37305;SDS011;23193;42.656;21.170;2023-06-14T14:15:50;8.07;;;5.22;;
37305;SDS011;23193;42.656;21.170;2023-06-14T14:18:17;11.07;;;5.10;;
37305;SDS011;23193;42.656;21.170;2023-06-14T14:20:43;9.55;;;4.88;;
37305;SDS011;23193;42.656;21.170;2023-06-14T14:23:09;8.73;;;5.90;;
37305;SDS011;23193;42.656;21.170;2023-06-14T14:25:35;9.43;;;5.05;;
37305;SDS011;23193;42.656;21.170;2023-06-14T14:28:02;11.00;;;4.50;;
37305;SDS011;23193;42.656;21.170;2023-06-14T14:30:28;7.97;;;4.80;;
37305;SDS011;23193;42.656;21.170;2023-06-14T14:32:54;6.95;;;4.93;;
37305;SDS011;23193;42.656;21.170;2023-06-14T14:35:20;10.07;;;5.47;;
37305;SDS011;23193;42.656;21.170;2023-06-14T14:37:49;11.55;;;6.30;;
37305;SDS011;23193;42.656;21.170;2023-06-14T14:40:17;7.38;;;4.07;;
37305;SDS011;23193;42.656;21.170;2023-06-14T14:42:43;9.27;;;4.32;;